sensor_id;sensor_type;location;lat;lon;timestamp;temperature;humidity
38784;DHT22;24531;45.502;12.238;2024-03-29T01:23:50;11.80;99.90
38784;DHT22;24531;45.502;12.238;2024-03-29T01:29:15;11.70;99.90
38784;DHT22;24531;45.502;12.238;2024-03-29T01:31:42;11.80;99.90
38784;DHT22;24531;45.502;12.238;2024-03-29T01:34:29;11.80;99.90
38784;DHT22;24531;45.502;12.238;2024-03-29T01:37:38;11.80;99.90
38784;DHT22;24531;45.502;12.238;2024-03-29T01:49:13;11.80;99.90
38784;DHT22;24531;45.502;12.238;2024-03-29T01:58:35;12.00;99.90
38784;DHT22;24531;45.502;12.238;2024-03-29T02:01:19;11.60;99.90
38784;DHT22;24531;45.502;12.238;2024-03-29T02:04:29;11.60;99.90
38784;DHT22;24531;45.502;12.238;2024-03-29T02:10:20;11.60;99.90
38784;DHT22;24531;45.502;12.238;2024-03-29T02:13:22;11.60;99.90
38784;DHT22;24531;45.502;12.238;2024-03-29T02:18:45;11.60;99.90
38784;DHT22;24531;45.502;12.238;2024-03-29T02:21:31;11.60;99.90
38784;DHT22;24531;45.502;12.238;2024-03-29T02:27:24;11.60;99.90
38784;DHT22;24531;45.502;12.238;2024-03-29T02:33:52;11.40;99.90
38784;DHT22;24531;45.502;12.238;2024-03-29T02:36:18;11.50;99.90
38784;DHT22;24531;45.502;12.238;2024-03-29T03:50:48;12.10;99.90
38784;DHT22;24531;45.502;12.238;2024-03-29T03:53:13;12.10;99.90
38784;DHT22;24531;45.502;12.238;2024-03-29T03:55:42;12.10;99.90
38784;DHT22;24531;45.502;12.238;2024-03-29T03:58:08;12.10;99.90
38784;DHT22;24531;45.502;12.238;2024-03-29T04:00:34;12.10;99.90
38784;DHT22;24531;45.502;12.238;2024-03-29T04:03:05;12.10;99.90
38784;DHT22;24531;45.502;12.238;2024-03-29T04:05:49;12.10;99.90
38784;DHT22;24531;45.502;12.238;2024-03-29T04:08:15;12.10;99.90
38784;DHT22;24531;45.502;12.238;2024-03-29T04:10:49;12.10;99.90
38784;DHT22;24531;45.502;12.238;2024-03-29T04:13:35;12.10;99.90
38784;DHT22;24531;45.502;12.238;2024-03-29T04:16:07;12.10;99.90
38784;DHT22;24531;45.502;12.238;2024-03-29T04:18:33;12.10;99.90
38784;DHT22;24531;45.502;12.238;2024-03-29T04:21:11;12.10;99.90
38784;DHT22;24531;45.502;12.238;2024-03-29T04:23:40;12.10;99.90
38784;DHT22;24531;45.502;12.238;2024-03-29T04:26:05;12.10;99.90
38784;DHT22;24531;45.502;12.238;2024-03-29T04:28:31;12.10;99.90
38784;DHT22;24531;45.502;12.238;2024-03-29T04:30:58;12.10;99.90
38784;DHT22;24531;45.502;12.238;2024-03-29T04:33:24;12.20;99.90
38784;DHT22;24531;45.502;12.238;2024-03-29T04:36:16;12.20;99.90
38784;DHT22;24531;45.502;12.238;2024-03-29T04:38:42;12.10;99.90
38784;DHT22;24531;45.502;12.238;2024-03-29T04:41:09;12.20;99.90
38784;DHT22;24531;45.502;12.238;2024-03-29T04:43:39;12.10;99.90
38784;DHT22;24531;45.502;12.238;2024-03-29T04:46:16;12.10;99.90
38784;DHT22;24531;45.502;12.238;2024-03-29T04:48:44;12.00;99.90
38784;DHT22;24531;45.502;12.238;2024-03-29T04:51:14;12.00;99.90
38784;DHT22;24531;45.502;12.238;2024-03-29T04:53:45;12.10;99.90
38784;DHT22;24531;45.502;12.238;2024-03-29T04:56:17;12.20;99.90
38784;DHT22;24531;45.502;12.238;2024-03-29T05:38:27;12.20;99.90
38784;DHT22;24531;45.502;12.238;2024-03-29T05:57:16;12.30;99.90
38784;DHT22;24531;45.502;12.238;2024-03-29T06:00:00;12.30;99.90
38784;DHT22;24531;45.502;12.238;2024-03-29T06:02:47;12.30;99.90
38784;DHT22;24531;45.502;12.238;2024-03-29T06:05:44;12.20;99.90
38784;DHT22;24531;45.502;12.238;2024-03-29T06:10:45;12.30;99.90
38784;DHT22;24531;45.502;12.238;2024-03-29T06:13:11;12.40;99.90
38784;DHT22;24531;45.502;12.238;2024-03-29T06:15:53;12.40;99.90
38784;DHT22;24531;45.502;12.238;2024-03-29T06:18:37;12.40;99.90
38784;DHT22;24531;45.502;12.238;2024-03-29T06:21:07;12.50;99.90
38784;DHT22;24531;45.502;12.238;2024-03-29T06:23:33;12.50;99.90
38784;DHT22;24531;45.502;12.238;2024-03-29T06:26:01;12.50;99.90
38784;DHT22;24531;45.502;12.238;2024-03-29T06:28:36;12.50;99.90
38784;DHT22;24531;45.502;12.238;2024-03-29T06:31:05;12.60;99.90
38784;DHT22;24531;45.502;12.238;2024-03-29T06:33:30;12.60;99.90
38784;DHT22;24531;45.502;12.238;2024-03-29T06:36:02;12.60;99.90
38784;DHT22;24531;45.502;12.238;2024-03-29T06:38:28;12.50;99.90
38784;DHT22;24531;45.502;12.238;2024-03-29T06:40:54;12.60;99.90
38784;DHT22;24531;45.502;12.238;2024-03-29T06:43:19;12.60;99.90
38784;DHT22;24531;45.502;12.238;2024-03-29T06:45:52;12.70;99.90
38784;DHT22;24531;45.502;12.238;2024-03-29T06:48:18;12.60;99.90
38784;DHT22;24531;45.502;12.238;2024-03-29T06:50:47;12.70;99.90
38784;DHT22;24531;45.502;12.238;2024-03-29T06:53:12;12.70;99.90
38784;DHT22;24531;45.502;12.238;2024-03-29T06:55:44;12.80;99.90
38784;DHT22;24531;45.502;12.238;2024-03-29T06:58:09;12.80;99.90
38784;DHT22;24531;45.502;12.238;2024-03-29T07:00:35;12.80;99.90
38784;DHT22;24531;45.502;12.238;2024-03-29T07:03:01;12.90;99.90
38784;DHT22;24531;45.502;12.238;2024-03-29T07:05:33;12.90;99.90
38784;DHT22;24531;45.502;12.238;2024-03-29T07:07:58;12.90;99.90
38784;DHT22;24531;45.502;12.238;2024-03-29T07:10:31;12.90;99.90
38784;DHT22;24531;45.502;12.238;2024-03-29T07:13:00;12.90;99.90
38784;DHT22;24531;45.502;12.238;2024-03-29T07:15:25;12.90;99.90
38784;DHT22;24531;45.502;12.238;2024-03-29T07:17:51;12.90;99.90
38784;DHT22;24531;45.502;12.238;2024-03-29T20:38:26;16.60;99.90
38784;DHT22;24531;45.502;12.238;2024-03-29T20:40:58;16.60;99.90
38784;DHT22;24531;45.502;12.238;2024-03-29T20:43:23;16.60;99.90
38784;DHT22;24531;45.502;12.238;2024-03-29T20:45:52;16.60;99.90
38784;DHT22;24531;45.502;12.238;2024-03-29T20:54:25;16.70;99.90
38784;DHT22;24531;45.502;12.238;2024-03-29T21:03:38;16.70;99.90
38784;DHT22;24531;45.502;12.238;2024-03-29T21:35:28;16.80;99.90
38784;DHT22;24531;45.502;12.238;2024-03-29T21:37:57;16.80;99.90
38784;DHT22;24531;45.502;12.238;2024-03-29T21:40:57;16.80;99.90
38784;DHT22;24531;45.502;12.238;2024-03-29T21:54:24;16.70;99.90
38784;DHT22;24531;45.502;12.238;2024-03-29T22:32:52;16.80;99.90
38784;DHT22;24531;45.502;12.238;2024-03-29T22:40:29;16.80;99.90
38784;DHT22;24531;45.502;12.238;2024-03-29T22:46:21;16.90;99.90
38784;DHT22;24531;45.502;12.238;2024-03-29T22:48:46;16.80;99.90
38784;DHT22;24531;45.502;12.238;2024-03-29T22:51:12;16.80;99.90
38784;DHT22;24531;45.502;12.238;2024-03-29T22:54:03;16.80;99.90
38784;DHT22;24531;45.502;12.238;2024-03-29T22:56:32;16.80;99.90
38784;DHT22;24531;45.502;12.238;2024-03-29T22:59:20;17.00;99.90
38784;DHT22;24531;45.502;12.238;2024-03-29T23:01:50;16.80;99.90
38784;DHT22;24531;45.502;12.238;2024-03-29T23:11:11;16.70;99.90
38784;DHT22;24531;45.502;12.238;2024-03-29T23:16:54;16.80;99.90
38784;DHT22;24531;45.502;12.238;2024-03-29T23:19:37;16.70;99.90
38784;DHT22;24531;45.502;12.238;2024-03-29T23:22:03;16.70;99.90
38784;DHT22;24531;45.502;12.238;2024-03-29T23:24:29;16.70;99.90
38784;DHT22;24531;45.502;12.238;2024-03-29T23:27:13;16.70;99.90
38784;DHT22;24531;45.502;12.238;2024-03-29T23:29:38;16.70;99.90
38784;DHT22;24531;45.502;12.238;2024-03-29T23:38:17;16.70;99.90
38784;DHT22;24531;45.502;12.238;2024-03-29T23:40:54;16.80;99.90
38784;DHT22;24531;45.502;12.238;2024-03-29T23:43:20;16.70;99.90
38784;DHT22;24531;45.502;12.238;2024-03-29T23:45:45;16.70;99.90
